createdAt,value
2022-07-29T00:00:57.018Z,99686.25
2022-07-29T00:03:23.604Z,99687.84
2022-07-29T00:05:50.123Z,99690.25
2022-07-29T00:08:16.620Z,99683.72
2022-07-29T00:10:43.312Z,99679.75
2022-07-29T00:13:09.819Z,99676.97
2022-07-29T00:15:36.379Z,99679.38
2022-07-29T00:18:02.881Z,99673.00
2022-07-29T00:20:29.398Z,99673.09
2022-07-29T00:22:55.882Z,99674.28
2022-07-29T00:25:22.881Z,99679.84
2022-07-29T00:27:49.499Z,99691.00
2022-07-29T00:30:16.019Z,99681.44
2022-07-29T00:32:42.573Z,99688.84
2022-07-29T00:35:28.324Z,99685.03
2022-07-29T00:37:54.902Z,99682.41
2022-07-29T00:40:23.391Z,99673.88
2022-07-29T00:42:51.582Z,99674.59
2022-07-29T00:45:18.587Z,99674.94
2022-07-29T00:47:45.609Z,99678.84
2022-07-29T00:50:13.430Z,99677.81
2022-07-29T00:52:41.149Z,99685.91
2022-07-29T00:55:10.471Z,99681.72
2022-07-29T00:57:37.626Z,99675.22
2022-07-29T01:00:09.699Z,99680.13
2022-07-29T01:02:36.506Z,99670.53
2022-07-29T01:05:04.841Z,99677.94
2022-07-29T01:07:33.190Z,99673.78
2022-07-29T01:09:59.935Z,99664.72
2022-07-29T01:12:28.265Z,99664.44
2022-07-29T01:14:55.992Z,99662.44
2022-07-29T01:17:29.982Z,99659.97
2022-07-29T01:20:12.400Z,99656.31
2022-07-29T01:23:12.620Z,99659.56
2022-07-29T01:25:46.652Z,99647.66
2022-07-29T01:29:01.133Z,99643.16
2022-07-29T01:31:49.139Z,99648.72
2022-07-29T01:34:32.383Z,99651.91
2022-07-29T01:37:05.094Z,99645.34
2022-07-29T01:39:36.526Z,99641.13
2022-07-29T01:42:12.244Z,99649.16
2022-07-29T01:44:46.910Z,99641.38
2022-07-29T01:47:16.749Z,99637.50
2022-07-29T01:49:48.525Z,99642.56
2022-07-29T01:52:24.822Z,99642.09
2022-07-29T01:54:56.916Z,99640.44
2022-07-29T01:57:27.518Z,99642.63
2022-07-29T01:59:54.644Z,99645.31
2022-07-29T02:02:22.530Z,99643.28
2022-07-29T02:04:50.684Z,99643.47
2022-07-29T02:07:19.438Z,99639.94
2022-07-29T02:09:46.973Z,99640.59
2022-07-29T02:12:14.313Z,99636.56
2022-07-29T02:14:47.153Z,99639.25
2022-07-29T02:17:14.493Z,99630.31
2022-07-29T02:19:42.286Z,99629.69
2022-07-29T02:22:09.635Z,99634.19
2022-07-29T02:24:38.448Z,99635.06
2022-07-29T02:27:05.096Z,99634.09
2022-07-29T02:29:33.259Z,99622.84
2022-07-29T02:32:00.476Z,99622.19
2022-07-29T02:34:27.989Z,99625.41
2022-07-29T02:36:55.292Z,99620.72
2022-07-29T02:39:22.655Z,99622.44
2022-07-29T02:41:51.826Z,99625.50
2022-07-29T02:44:19.448Z,99621.69
2022-07-29T02:46:51.032Z,99631.56
2022-07-29T02:49:26.696Z,99633.59
2022-07-29T02:52:00.098Z,99635.97
2022-07-29T02:54:49.669Z,99633.31
2022-07-29T02:57:35.994Z,99636.66
2022-07-29T03:00:22.551Z,99627.63
2022-07-29T03:02:52.220Z,99624.78
2022-07-29T03:05:20.870Z,99628.81
2022-07-29T03:07:52.262Z,99623.47
2022-07-29T03:10:19.258Z,99632.69
2022-07-29T03:12:46.186Z,99626.19
2022-07-29T03:15:13.203Z,99623.66
2022-07-29T03:17:40.940Z,99623.00
2022-07-29T03:20:08.875Z,99624.50
2022-07-29T03:22:44.437Z,99625.16
2022-07-29T03:25:12.312Z,99613.91
2022-07-29T03:27:38.822Z,99615.41
2022-07-29T03:30:06.830Z,99610.03
2022-07-29T03:32:35.713Z,99614.41
2022-07-29T03:35:03.057Z,99607.03
2022-07-29T03:37:31.405Z,99605.16
2022-07-29T03:39:58.903Z,99607.47
2022-07-29T03:42:32.427Z,99606.66
2022-07-29T03:45:03.397Z,99610.03
2022-07-29T03:47:50.224Z,99613.16
2022-07-29T03:50:20.165Z,99617.22
2022-07-29T03:52:46.809Z,99610.97
2022-07-29T03:55:13.461Z,99618.22
2022-07-29T03:57:40.624Z,99615.72
2022-07-29T04:00:08.117Z,99612.84
2022-07-29T04:02:34.613Z,99619.91
2022-07-29T04:05:01.137Z,99620.59
2022-07-29T04:07:27.680Z,99624.09
2022-07-29T04:09:54.174Z,99625.63
2022-07-29T04:12:21.904Z,99622.97
2022-07-29T04:14:48.401Z,99614.94
2022-07-29T04:17:14.881Z,99621.81
2022-07-29T04:19:41.408Z,99622.81
2022-07-29T04:22:07.864Z,99619.81
2022-07-29T04:24:34.342Z,99610.75
2022-07-29T04:27:00.810Z,99622.84
2022-07-29T04:29:27.309Z,99625.88
2022-07-29T04:31:53.779Z,99624.72
2022-07-29T04:34:21.121Z,99622.06
2022-07-29T04:36:47.784Z,99629.41
2022-07-29T04:39:18.066Z,99625.22
2022-07-29T04:41:48.126Z,99629.28
2022-07-29T04:44:14.852Z,99631.28
2022-07-29T04:46:41.624Z,99621.88
2022-07-29T04:49:08.748Z,99615.69
2022-07-29T04:51:36.338Z,99619.22
2022-07-29T04:54:02.822Z,99616.03
2022-07-29T04:56:29.359Z,99621.91
2022-07-29T04:58:56.045Z,99621.56
2022-07-29T05:01:22.551Z,99616.16
2022-07-29T05:03:49.443Z,99614.84
2022-07-29T05:06:15.967Z,99615.66
2022-07-29T05:08:42.487Z,99619.03
2022-07-29T05:11:12.545Z,99623.22
2022-07-29T05:13:46.179Z,99623.84
2022-07-29T05:16:14.120Z,99622.53
2022-07-29T05:18:40.800Z,99622.53
2022-07-29T05:21:07.246Z,99617.63
2022-07-29T05:23:33.698Z,99627.69
2022-07-29T05:26:00.209Z,99629.00
2022-07-29T05:28:26.665Z,99622.63
2022-07-29T05:30:53.219Z,99624.50
2022-07-29T05:33:35.124Z,99624.13
2022-07-29T05:36:08.465Z,99630.00
2022-07-29T05:38:38.291Z,99631.34
2022-07-29T05:41:05.585Z,99632.69
2022-07-29T05:43:32.684Z,99621.59
2022-07-29T05:45:59.322Z,99636.53
2022-07-29T05:48:26.265Z,99635.34
2022-07-29T05:50:52.767Z,99634.16
2022-07-29T05:53:20.861Z,99640.00
2022-07-29T05:55:48.639Z,99645.91
2022-07-29T05:58:15.126Z,99644.56
2022-07-29T06:00:41.640Z,99647.38
2022-07-29T06:03:08.310Z,99646.69
2022-07-29T06:05:34.791Z,99653.19
2022-07-29T06:08:01.254Z,99636.56
2022-07-29T06:10:27.795Z,99641.22
2022-07-29T06:12:54.576Z,99647.75
2022-07-29T06:15:21.097Z,99649.22
2022-07-29T06:17:59.973Z,99654.28
2022-07-29T06:20:31.237Z,99658.47
2022-07-29T06:22:58.369Z,99662.28
2022-07-29T06:25:24.835Z,99660.56
2022-07-29T06:27:51.258Z,99656.81
2022-07-29T06:30:17.758Z,99647.38
2022-07-29T06:32:44.802Z,99654.09
2022-07-29T06:35:37.580Z,99658.72
2022-07-29T06:37:59.645Z,99646.94
2022-07-29T06:40:45.390Z,99654.13
2022-07-29T06:43:11.881Z,99646.97
2022-07-29T06:45:42.033Z,99649.59
2022-07-29T06:48:09.086Z,99655.28
2022-07-29T06:50:35.581Z,99654.56
2022-07-29T06:53:02.069Z,99660.59
2022-07-29T06:55:28.519Z,99662.06
2022-07-29T06:57:54.981Z,99665.44
2022-07-29T07:00:21.447Z,99662.56
2022-07-29T07:02:47.918Z,99672.13
2022-07-29T07:05:14.496Z,99675.66
2022-07-29T07:07:40.978Z,99678.81
2022-07-29T07:10:07.791Z,99679.94
2022-07-29T07:12:34.573Z,99682.06
2022-07-29T07:15:01.394Z,99682.34
2022-07-29T07:17:27.941Z,99681.81
2022-07-29T07:19:54.406Z,99695.38
2022-07-29T07:22:20.924Z,99691.81
2022-07-29T07:24:47.528Z,99692.75
2022-07-29T07:27:14.015Z,99691.81
2022-07-29T07:29:42.085Z,99692.56
2022-07-29T07:32:11.000Z,99694.34
2022-07-29T07:34:38.734Z,99700.19
2022-07-29T07:37:05.420Z,99699.81
2022-07-29T07:39:31.943Z,99697.38
2022-07-29T07:41:58.431Z,99695.81
2022-07-29T07:44:24.896Z,99696.28
2022-07-29T07:46:51.380Z,99697.38
2022-07-29T07:49:17.907Z,99696.81
2022-07-29T07:51:44.631Z,99697.09
2022-07-29T07:54:17.755Z,99693.63
2022-07-29T07:56:44.473Z,99700.38
2022-07-29T07:59:10.917Z,99691.50
2022-07-29T08:01:48.428Z,99693.00
2022-07-29T08:04:27.431Z,99691.19
2022-07-29T08:06:55.806Z,99694.91
2022-07-29T08:09:29.264Z,99697.44
2022-07-29T08:11:57.333Z,99704.94
2022-07-29T08:14:23.898Z,99694.03
2022-07-29T08:16:50.691Z,99694.13
2022-07-29T08:19:17.223Z,99697.72
2022-07-29T08:21:43.854Z,99696.31
2022-07-29T08:24:28.847Z,99699.47
2022-07-29T08:26:55.310Z,99700.94
2022-07-29T08:29:21.754Z,99701.00
2022-07-29T08:31:48.285Z,99697.97
2022-07-29T08:34:14.764Z,99706.63
2022-07-29T08:36:41.277Z,99705.63
2022-07-29T08:39:07.750Z,99700.03
2022-07-29T08:41:34.281Z,99701.09
2022-07-29T08:44:00.810Z,99704.00
2022-07-29T08:46:30.399Z,99705.22
2022-07-29T08:48:57.126Z,99712.56
2022-07-29T08:51:24.061Z,99711.13
2022-07-29T08:53:51.255Z,99708.47
2022-07-29T08:56:19.090Z,99707.69
2022-07-29T08:58:51.765Z,99709.84
2022-07-29T09:01:36.136Z,99700.19
2022-07-29T09:04:11.833Z,99704.78
2022-07-29T09:06:41.093Z,99702.31
2022-07-29T09:09:08.552Z,99700.09
2022-07-29T09:11:35.353Z,99697.22
2022-07-29T09:14:01.956Z,99700.59
2022-07-29T09:16:53.136Z,99698.31
2022-07-29T09:19:45.418Z,99706.22
2022-07-29T09:22:13.017Z,99702.50
2022-07-29T09:24:44.622Z,99701.66
2022-07-29T09:27:19.752Z,99704.56
2022-07-29T09:29:46.202Z,99695.00
2022-07-29T09:32:12.956Z,99696.66
2022-07-29T09:34:39.585Z,99698.56
2022-07-29T09:37:06.373Z,99689.00
2022-07-29T09:39:35.550Z,99689.63
2022-07-29T09:42:05.004Z,99691.13
2022-07-29T09:45:04.368Z,99686.97
2022-07-29T09:47:50.089Z,99691.59
2022-07-29T09:50:17.071Z,99695.13
2022-07-29T09:52:52.178Z,99696.19
2022-07-29T09:55:19.838Z,99693.88
2022-07-29T09:57:47.439Z,99690.56
2022-07-29T10:00:16.346Z,99683.56
2022-07-29T10:02:47.007Z,99691.03
2022-07-29T10:05:36.857Z,99686.69
2022-07-29T10:08:03.737Z,99680.88
2022-07-29T10:10:34.784Z,99687.56
2022-07-29T10:13:07.103Z,99684.00
2022-07-29T10:15:41.771Z,99685.47
2022-07-29T10:18:09.524Z,99681.53
2022-07-29T10:20:36.730Z,99680.47
2022-07-29T10:23:03.232Z,99683.38
2022-07-29T10:25:29.904Z,99679.84
2022-07-29T10:27:56.628Z,99687.34
2022-07-29T10:30:24.954Z,99679.66
2022-07-29T10:33:10.394Z,99685.28
2022-07-29T10:35:58.749Z,99683.63
2022-07-29T10:39:09.934Z,99680.91
2022-07-29T10:42:03.754Z,99682.75
2022-07-29T10:44:30.623Z,99678.81
2022-07-29T10:46:57.589Z,99684.03
2022-07-29T10:49:27.210Z,99679.25
2022-07-29T10:51:58.543Z,99681.94
2022-07-29T10:54:38.053Z,99667.78
2022-07-29T10:57:20.179Z,99670.88
2022-07-29T10:59:53.080Z,99662.75
2022-07-29T11:02:42.131Z,99669.00
2022-07-29T11:05:15.615Z,99665.66
2022-07-29T11:08:28.397Z,99653.94
2022-07-29T11:11:22.127Z,99659.97
2022-07-29T11:13:51.400Z,99655.41
2022-07-29T11:16:22.977Z,99657.69
2022-07-29T11:19:14.012Z,99667.50
2022-07-29T11:21:54.106Z,99660.44
2022-07-29T11:24:35.696Z,99667.50
2022-07-29T11:30:04.735Z,99662.06
2022-07-29T11:32:44.628Z,99652.63
2022-07-29T11:35:19.161Z,99663.66
2022-07-29T11:37:52.230Z,99662.72
2022-07-29T11:40:33.889Z,99651.63
2022-07-29T11:43:00.407Z,99645.91
2022-07-29T11:45:41.886Z,99646.28
2022-07-29T11:48:31.957Z,99646.22
2022-07-29T11:51:00.036Z,99643.47
2022-07-29T11:53:29.282Z,99642.56
2022-07-29T11:55:59.769Z,99637.50
2022-07-29T11:58:27.080Z,99641.47
2022-07-29T12:00:55.521Z,99633.31
2022-07-29T12:06:18.303Z,99640.78
2022-07-29T12:07:03.208Z,99638.13
2022-07-29T12:07:03.868Z,99664.19
2022-07-29T12:08:45.665Z,99633.03
2022-07-29T12:11:20.908Z,99637.81
2022-07-29T12:13:49.318Z,99624.88
2022-07-29T12:16:16.182Z,99627.16
2022-07-29T12:18:59.835Z,99625.72
2022-07-29T12:21:26.611Z,99625.75
2022-07-29T12:23:57.069Z,99614.66
2022-07-29T12:26:28.558Z,99621.75
2022-07-29T12:28:55.530Z,99622.66
2022-07-29T12:31:44.011Z,99618.59
2022-07-29T12:34:10.204Z,99611.63
2022-07-29T12:36:37.452Z,99610.09
2022-07-29T12:39:04.798Z,99609.69
2022-07-29T12:41:31.509Z,99600.59
2022-07-29T12:43:58.013Z,99604.47
2022-07-29T12:46:24.544Z,99594.94
2022-07-29T12:48:58.310Z,99594.84
2022-07-29T12:51:39.804Z,99600.22
2022-07-29T12:54:11.543Z,99590.69
2022-07-29T12:56:43.622Z,99597.72
2022-07-29T12:59:20.322Z,99599.91
2022-07-29T13:01:51.536Z,99598.97
2022-07-29T13:04:32.362Z,99596.75
2022-07-29T13:07:17.960Z,99592.97
2022-07-29T13:09:49.296Z,99592.84
2022-07-29T13:12:15.828Z,99593.84
2022-07-29T13:14:47.422Z,99592.78
2022-07-29T13:17:14.768Z,99592.47
2022-07-29T13:19:49.337Z,99593.00
2022-07-29T13:22:18.285Z,99592.56
2022-07-29T13:24:57.964Z,99585.66
2022-07-29T13:27:26.433Z,99595.94
2022-07-29T13:29:54.361Z,99590.22
2022-07-29T13:32:28.649Z,99588.53
2022-07-29T13:35:00.990Z,99582.19
2022-07-29T13:37:30.451Z,99588.84
2022-07-29T13:39:57.723Z,99583.88
2022-07-29T13:42:24.593Z,99589.31
2022-07-29T13:44:52.497Z,99589.59
2022-07-29T13:47:20.151Z,99585.69
2022-07-29T13:49:46.883Z,99585.81
2022-07-29T13:52:13.509Z,99586.19
2022-07-29T13:54:42.347Z,99589.44
2022-07-29T13:57:10.227Z,99589.56
2022-07-29T13:59:37.002Z,99581.88
2022-07-29T14:02:03.648Z,99586.84
2022-07-29T14:04:30.236Z,99582.34
2022-07-29T14:06:56.747Z,99582.34
2022-07-29T14:09:23.825Z,99573.91
2022-07-29T14:11:51.795Z,99578.53
2022-07-29T14:14:18.544Z,99575.69
2022-07-29T14:16:50.447Z,99584.22
2022-07-29T14:19:18.980Z,99581.81
2022-07-29T14:21:46.327Z,99583.56
2022-07-29T14:24:17.803Z,99584.03
2022-07-29T14:26:48.641Z,99584.13
2022-07-29T14:29:15.230Z,99587.78
2022-07-29T14:31:41.768Z,99590.13
2022-07-29T14:34:08.345Z,99594.88
2022-07-29T14:36:34.841Z,99597.66
2022-07-29T14:39:01.473Z,99604.41
2022-07-29T14:41:29.124Z,99594.94
2022-07-29T14:43:55.712Z,99591.53
2022-07-29T14:46:22.201Z,99599.59
2022-07-29T14:48:48.889Z,99605.28
2022-07-29T14:51:15.337Z,99602.13
2022-07-29T14:53:41.783Z,99605.41
2022-07-29T14:56:35.019Z,99600.59
2022-07-29T14:58:54.705Z,99591.25
2022-07-29T15:01:21.223Z,99608.13
2022-07-29T15:03:47.702Z,99590.06
2022-07-29T15:06:14.206Z,99586.97
2022-07-29T15:08:40.800Z,99596.94
2022-07-29T15:11:07.539Z,99586.97
2022-07-29T15:13:34.396Z,99586.13
2022-07-29T15:16:01.112Z,99590.78
2022-07-29T15:18:27.740Z,99595.16
2022-07-29T15:20:54.227Z,99588.63
2022-07-29T15:23:20.781Z,99589.13
2022-07-29T15:25:47.261Z,99589.69
2022-07-29T15:28:13.803Z,99586.16
2022-07-29T15:30:43.442Z,99592.06
2022-07-29T15:33:10.472Z,99597.63
2022-07-29T15:35:40.847Z,99597.53
2022-07-29T15:38:07.807Z,99600.47
2022-07-29T15:40:34.591Z,99596.47
2022-07-29T15:43:06.385Z,99599.50
2022-07-29T15:45:41.396Z,99601.97
2022-07-29T15:48:09.266Z,99608.38
2022-07-29T15:50:35.772Z,99617.50
2022-07-29T15:53:02.272Z,99595.25
2022-07-29T15:55:28.748Z,99597.88
2022-07-29T15:58:00.263Z,99597.66
2022-07-29T16:00:27.252Z,99594.81
2022-07-29T16:02:53.752Z,99580.94
2022-07-29T16:05:20.218Z,99584.13
2022-07-29T16:07:46.912Z,99588.25
2022-07-29T16:10:13.673Z,99591.47
2022-07-29T16:12:40.256Z,99585.22
2022-07-29T16:15:10.192Z,99586.03
2022-07-29T16:17:37.831Z,99586.38
2022-07-29T16:20:05.858Z,99585.44
2022-07-29T16:22:32.328Z,99593.25
2022-07-29T16:24:58.888Z,99580.09
2022-07-29T16:27:35.374Z,99584.72
2022-07-29T16:30:06.172Z,99610.91
2022-07-29T16:32:32.608Z,99599.78
2022-07-29T16:34:59.043Z,99580.72
2022-07-29T16:37:25.804Z,99587.16
2022-07-29T16:39:55.384Z,99595.59
2022-07-29T16:42:44.374Z,99612.31
2022-07-29T16:45:08.975Z,99609.25
2022-07-29T16:47:36.129Z,99604.59
2022-07-29T16:50:02.611Z,99610.16
2022-07-29T16:52:29.065Z,99616.47
2022-07-29T16:54:55.515Z,99625.75
2022-07-29T16:57:21.979Z,99630.38
2022-07-29T16:59:50.849Z,99628.16
2022-07-29T17:02:17.280Z,99643.22
2022-07-29T17:04:43.817Z,99640.50
2022-07-29T17:07:10.293Z,99642.84
2022-07-29T17:09:36.853Z,99648.88
2022-07-29T17:12:03.416Z,99645.94
2022-07-29T17:14:31.021Z,99662.84
2022-07-29T17:17:03.185Z,99655.78
2022-07-29T17:19:32.280Z,99662.88
2022-07-29T17:22:05.026Z,99661.44
2022-07-29T17:24:35.886Z,99662.72
2022-07-29T17:27:02.330Z,99662.75
2022-07-29T17:29:28.776Z,99664.41
2022-07-29T17:31:55.508Z,99668.81
2022-07-29T17:34:21.948Z,99650.25
2022-07-29T17:36:48.476Z,99655.47
2022-07-29T17:39:14.957Z,99660.50
2022-07-29T17:41:41.395Z,99662.34
2022-07-29T17:44:09.286Z,99658.38
2022-07-29T17:46:35.988Z,99661.09
2022-07-29T17:49:02.697Z,99653.19
2022-07-29T17:51:29.468Z,99653.41
2022-07-29T17:53:55.968Z,99647.97
2022-07-29T17:56:22.445Z,99656.72
2022-07-29T17:58:49.010Z,99666.50
2022-07-29T18:01:16.103Z,99673.38
2022-07-29T18:03:43.085Z,99666.47
2022-07-29T18:06:12.825Z,99683.91
2022-07-29T18:08:39.771Z,99693.25
2022-07-29T18:11:06.512Z,99691.34
2022-07-29T18:13:33.238Z,99705.69
2022-07-29T18:16:00.629Z,99711.53
2022-07-29T18:18:27.521Z,99717.53
2022-07-29T18:20:54.057Z,99727.09
2022-07-29T18:23:20.569Z,99724.53
2022-07-29T18:25:47.115Z,99715.97
2022-07-29T18:28:13.581Z,99712.41
2022-07-29T18:30:40.230Z,99725.50
2022-07-29T18:33:21.624Z,99725.19
2022-07-29T18:35:50.878Z,99728.41
2022-07-29T18:38:17.474Z,99740.00
2022-07-29T18:40:45.399Z,99747.91
2022-07-29T18:43:12.547Z,99746.00
2022-07-29T18:45:39.654Z,99742.94
2022-07-29T18:48:08.319Z,99748.97
2022-07-29T18:50:40.203Z,99745.69
2022-07-29T18:53:08.995Z,99750.06
2022-07-29T18:55:35.489Z,99760.47
2022-07-29T18:58:02.041Z,99766.28
2022-07-29T19:00:28.567Z,99769.97
2022-07-29T19:02:55.998Z,99778.84
2022-07-29T19:05:23.119Z,99786.50
2022-07-29T19:07:49.571Z,99788.19
2022-07-29T19:10:16.038Z,99786.94
2022-07-29T19:12:42.522Z,99784.06
2022-07-29T19:15:10.286Z,99766.41
2022-07-29T19:17:36.780Z,99762.19
2022-07-29T19:20:04.000Z,99759.31
2022-07-29T19:22:30.829Z,99755.59
2022-07-29T19:24:57.273Z,99764.03
2022-07-29T19:27:24.037Z,99764.38
2022-07-29T19:29:50.597Z,99757.06
2022-07-29T19:32:24.920Z,99763.03
2022-07-29T19:35:11.105Z,99764.63
2022-07-29T19:37:37.658Z,99769.78
2022-07-29T19:40:05.565Z,99773.03
2022-07-29T19:42:32.031Z,99773.81
2022-07-29T19:44:58.745Z,99780.63
2022-07-29T19:47:25.218Z,99787.28
2022-07-29T19:49:51.858Z,99795.78
2022-07-29T19:52:18.343Z,99800.72
2022-07-29T19:54:44.865Z,99813.06
2022-07-29T19:57:11.539Z,99813.28
2022-07-29T19:59:38.661Z,99810.47
2022-07-29T20:02:05.463Z,99811.34
2022-07-29T20:04:31.963Z,99811.50
2022-07-29T20:07:01.696Z,99820.75
2022-07-29T20:09:28.852Z,99828.38
2022-07-29T20:11:55.432Z,99830.56
2022-07-29T20:14:22.183Z,99839.28
2022-07-29T20:16:49.840Z,99842.16
2022-07-29T20:19:18.443Z,99853.91
2022-07-29T20:21:46.478Z,99848.88
2022-07-29T20:24:14.631Z,99851.91
2022-07-29T20:26:41.202Z,99843.00
2022-07-29T20:29:07.750Z,99842.00
2022-07-29T20:31:34.664Z,99844.69
2022-07-29T20:34:01.981Z,99852.06
2022-07-29T20:36:29.919Z,99850.75
2022-07-29T20:38:57.159Z,99843.53
2022-07-29T20:41:28.719Z,99841.34
2022-07-29T20:43:55.969Z,99850.44
2022-07-29T20:46:24.097Z,99858.31
2022-07-29T20:48:51.865Z,99861.19
2022-07-29T20:51:18.551Z,99865.75
2022-07-29T20:53:48.660Z,99870.78
2022-07-29T20:56:17.607Z,99879.50
2022-07-29T20:58:45.444Z,99875.13
